Time;durP1;ratioP1;P1;durP2;ratioP2;P2;SDS_P1;SDS_P2;PMS_P1;PMS_P2;Temp;Humidity;BMP_temperature;BMP_pressure;BME280_temperature;BME280_humidity;BME280_pressure;Samples;Min_cycle;Max_cycle;Signal;HPM_P1;HPM_P2
2023/05/09 00:00:45;;;;;;;42.80;8.17;;;21.50;59.80;;;;;;5105051;28;20233;-94
2023/05/09 00:03:14;;;;;;;40.83;7.87;;;21.50;59.80;;;;;;5112096;28;20687;-95
2023/05/09 00:05:42;;;;;;;40.00;7.83;;;21.50;59.80;;;;;;5112246;28;20481;-94
2023/05/09 00:08:09;;;;;;;44.50;8.20;;;21.40;59.70;;;;;;5109584;28;20198;-96
2023/05/09 00:10:37;;;;;;;44.20;8.00;;;21.50;59.80;;;;;;5111801;28;20215;-94
2023/05/09 00:13:04;;;;;;;40.93;7.90;;;21.40;59.70;;;;;;5097673;28;20199;-94
2023/05/09 00:15:32;;;;;;;43.20;8.30;;;21.40;59.70;;;;;;5099130;28;20181;-95
2023/05/09 00:18:00;;;;;;;67.97;10.10;;;21.40;59.70;;;;;;5116965;28;20193;-94
2023/05/09 00:20:27;;;;;;;66.83;11.03;;;21.40;59.70;;;;;;5135493;28;20206;-95
2023/05/09 00:22:54;;;;;;;51.93;8.77;;;21.40;59.70;;;;;;5122656;27;20239;-95
2023/05/09 00:25:21;;;;;;;36.93;7.43;;;21.40;59.70;;;;;;5126033;28;20197;-95
2023/05/09 00:27:48;;;;;;;27.47;6.67;;;21.40;59.70;;;;;;5115775;27;20202;-95
2023/05/09 00:30:19;;;;;;;31.47;7.17;;;21.40;59.70;;;;;;5115340;27;20200;-95
2023/05/09 00:32:47;;;;;;;37.47;8.17;;;21.40;59.70;;;;;;5113342;28;20259;-96
2023/05/09 00:35:14;;;;;;;44.53;8.33;;;21.40;59.70;;;;;;5112178;28;20209;-95
2023/05/09 00:38:06;;;;;;;37.23;7.73;;;21.40;59.70;;;;;;5111175;28;20225;-96
2023/05/09 00:40:33;;;;;;;41.13;8.20;;;21.40;59.70;;;;;;5098207;28;20236;-95
2023/05/09 00:43:03;;;;;;;38.93;7.83;;;21.40;59.70;;;;;;5112417;28;20232;-96
2023/05/09 00:45:30;;;;;;;41.17;8.03;;;21.30;59.60;;;;;;5112203;28;20192;-95
2023/05/09 00:47:59;;;;;;;42.53;8.33;;;21.30;59.60;;;;;;5096774;28;20217;-96
2023/05/09 00:50:26;;;;;;;38.83;7.77;;;21.30;59.60;;;;;;5102591;28;20251;-95
2023/05/09 00:52:53;;;;;;;36.60;7.53;;;21.30;59.60;;;;;;5111320;28;20342;-94
2023/05/09 00:55:20;;;;;;;38.27;8.03;;;21.30;59.60;;;;;;5103536;28;20662;-95
2023/05/09 00:57:47;;;;;;;37.77;8.53;;;21.30;59.60;;;;;;5091939;28;20243;-95
2023/05/09 01:00:15;;;;;;;44.27;9.03;;;21.30;59.60;;;;;;5091733;28;20684;-95
2023/05/09 01:02:45;;;;;;;50.90;9.30;;;21.30;59.60;;;;;;5095551;28;20201;-95
2023/05/09 01:05:15;;;;;;;44.97;8.40;;;21.30;59.70;;;;;;5111008;28;20196;-96
2023/05/09 01:07:50;;;;;;;39.03;7.70;;;21.30;59.70;;;;;;5111717;28;20213;-95
2023/05/09 01:10:23;;;;;;;54.00;9.60;;;21.20;59.60;;;;;;5111023;27;20236;-94
2023/05/09 01:12:58;;;;;;;48.27;8.60;;;21.20;59.60;;;;;;5111114;28;20729;-96
2023/05/09 01:15:33;;;;;;;44.53;8.30;;;21.20;59.60;;;;;;5111079;27;20238;-95
2023/05/09 01:18:07;;;;;;;43.63;9.07;;;21.20;59.60;;;;;;5111945;28;20258;-96
2023/05/09 01:20:39;;;;;;;58.43;9.80;;;21.20;59.60;;;;;;5110969;27;20325;-95
2023/05/09 01:23:30;;;;;;;66.07;10.60;;;21.20;59.60;;;;;;5108770;28;20219;-96
2023/05/09 01:26:05;;;;;;;43.47;8.07;;;21.20;59.60;;;;;;5099218;28;20197;-96
2023/05/09 01:28:55;;;;;;;53.17;9.40;;;21.20;59.60;;;;;;5101619;28;20772;-96
2023/05/09 01:31:37;;;;;;;53.77;9.17;;;21.20;59.60;;;;;;5109298;28;20217;-96
2023/05/09 01:34:07;;;;;;;43.83;8.43;;;21.20;59.60;;;;;;5108391;28;20211;-96
2023/05/09 01:36:40;;;;;;;35.63;8.23;;;21.20;59.60;;;;;;5112012;28;20233;-96
2023/05/09 01:41:55;;;;;;;44.23;8.93;;;21.20;59.60;;;;;;5080274;28;20297;-96
2023/05/09 01:44:26;;;;;;;36.60;7.93;;;21.20;59.60;;;;;;5109093;28;20254;-96
2023/05/09 01:46:55;;;;;;;43.87;8.30;;;21.10;59.60;;;;;;5110204;28;20232;-95
2023/05/09 01:49:23;;;;;;;39.53;8.13;;;21.10;59.60;;;;;;5110534;28;20201;-95
2023/05/09 01:51:52;;;;;;;49.87;8.93;;;21.10;59.60;;;;;;5110389;28;20255;-96
2023/05/09 01:54:20;;;;;;;42.80;8.30;;;21.10;59.60;;;;;;5109209;28;20255;-95
2023/05/09 01:56:51;;;;;;;37.37;7.43;;;21.10;59.60;;;;;;5104543;28;20274;-95
2023/05/09 01:59:19;;;;;;;39.20;7.97;;;21.20;59.70;;;;;;5107449;28;20225;-95
2023/05/09 02:01:47;;;;;;;43.93;8.57;;;21.00;59.50;;;;;;5110916;28;20198;-95
2023/05/09 02:04:17;;;;;;;42.17;8.07;;;21.00;59.50;;;;;;5110001;28;20256;-94
2023/05/09 02:06:49;;;;;;;43.63;7.87;;;21.00;60.20;;;;;;5108680;28;20221;-95
2023/05/09 02:09:17;;;;;;;43.00;8.50;;;21.00;59.50;;;;;;5106798;28;20206;-95
2023/05/09 02:11:44;;;;;;;58.63;9.40;;;21.00;59.60;;;;;;5109814;28;20285;-95
2023/05/09 02:14:11;;;;;;;50.90;8.83;;;21.00;59.50;;;;;;5110718;28;20195;-94
2023/05/09 02:16:39;;;;;;;81.23;11.47;;;21.00;59.50;;;;;;5106541;28;20190;-94
2023/05/09 02:19:06;;;;;;;42.13;8.87;;;21.00;59.50;;;;;;5097834;28;20328;-93
2023/05/09 02:21:37;;;;;;;45.20;8.83;;;21.00;59.60;;;;;;5105821;28;20259;-94
2023/05/09 02:24:06;;;;;;;31.63;6.93;;;21.00;59.50;;;;;;5107753;28;20317;-94
2023/05/09 02:26:34;;;;;;;47.47;8.77;;;21.00;59.50;;;;;;5106618;28;20225;-94
2023/05/09 02:29:03;;;;;;;34.57;7.90;;;21.00;59.60;;;;;;5093621;27;20403;-95
2023/05/09 02:31:31;;;;;;;42.53;8.23;;;21.00;59.60;;;;;;5104296;28;20285;-95
2023/05/09 02:33:58;;;;;;;39.87;7.80;;;21.00;59.60;;;;;;5104648;28;20720;-94
2023/05/09 02:36:26;;;;;;;33.87;7.10;;;21.00;59.60;;;;;;5109958;28;20417;-93
2023/05/09 02:38:55;;;;;;;30.87;6.63;;;21.00;59.60;;;;;;5105913;28;20201;-95
2023/05/09 02:41:22;;;;;;;36.00;7.40;;;20.90;59.50;;;;;;5109729;28;20278;-95
2023/05/09 02:43:49;;;;;;;37.93;7.73;;;20.90;59.50;;;;;;5109496;28;20222;-94
2023/05/09 02:46:16;;;;;;;45.00;8.47;;;20.90;59.50;;;;;;5107424;28;20256;-96
2023/05/09 02:48:43;;;;;;;52.73;8.77;;;20.90;59.50;;;;;;5107948;28;20209;-96
2023/05/09 02:51:10;;;;;;;39.23;7.60;;;21.00;59.70;;;;;;5108489;28;20233;-94
2023/05/09 02:53:40;;;;;;;34.97;7.30;;;20.90;59.50;;;;;;5110109;28;20317;-94
2023/05/09 02:56:09;;;;;;;46.13;8.40;;;20.90;59.50;;;;;;5110047;28;20616;-95
2023/05/09 02:58:36;;;;;;;37.53;8.17;;;20.90;59.50;;;;;;5109142;28;20210;-95
2023/05/09 03:01:03;;;;;;;45.47;8.03;;;20.90;59.50;;;;;;5109129;28;20230;-95
2023/05/09 03:03:32;;;;;;;39.57;7.77;;;20.90;59.50;;;;;;5092036;28;20599;-96
2023/05/09 03:06:00;;;;;;;43.20;8.40;;;20.90;59.60;;;;;;5095646;28;20637;-95
2023/05/09 03:08:27;;;;;;;37.00;7.63;;;20.90;59.50;;;;;;5106559;28;20205;-96
2023/05/09 03:10:56;;;;;;;31.40;6.60;;;20.90;59.60;;;;;;5089727;28;20191;-94
2023/05/09 03:13:24;;;;;;;55.73;9.57;;;20.90;59.60;;;;;;5096130;28;20213;-95
2023/05/09 03:15:51;;;;;;;41.00;7.63;;;20.90;59.60;;;;;;5094564;28;20679;-94
2023/05/09 03:18:18;;;;;;;36.90;8.00;;;20.90;59.60;;;;;;5097650;28;20233;-95
2023/05/09 03:20:45;;;;;;;40.03;7.87;;;20.90;59.60;;;;;;5107448;28;20230;-95
2023/05/09 03:23:12;;;;;;;47.93;7.93;;;20.90;59.60;;;;;;5091016;28;20225;-94
2023/05/09 03:25:39;;;;;;;36.20;7.57;;;20.90;59.60;;;;;;5102355;28;20206;-94
2023/05/09 03:28:06;;;;;;;38.20;8.47;;;20.80;59.60;;;;;;5109581;28;20202;-95
2023/05/09 03:30:35;;;;;;;39.33;8.10;;;20.80;59.50;;;;;;5094086;28;20202;-95
2023/05/09 03:33:03;;;;;;;35.60;7.77;;;20.80;59.60;;;;;;5107987;28;20202;-95
2023/05/09 03:35:30;;;;;;;35.87;8.13;;;20.80;59.50;;;;;;5109767;28;20210;-94
2023/05/09 03:38:00;;;;;;;35.10;7.97;;;20.80;59.60;;;;;;5099189;28;20236;-95
2023/05/09 03:40:27;;;;;;;36.17;8.07;;;20.90;59.60;;;;;;5108227;28;20287;-96
2023/05/09 03:42:54;;;;;;;38.27;7.77;;;20.80;59.60;;;;;;5109561;27;20204;-96
2023/05/09 03:45:21;;;;;;;28.03;7.10;;;20.80;59.50;;;;;;5108609;27;20205;-96
2023/05/09 03:47:50;;;;;;;33.23;7.60;;;20.80;59.50;;;;;;5090718;28;20630;-95
2023/05/09 03:50:17;;;;;;;37.53;8.10;;;20.80;59.60;;;;;;5101354;28;20226;-95
2023/05/09 03:52:44;;;;;;;32.13;7.37;;;20.80;59.60;;;;;;5109090;28;20288;-94
2023/05/09 03:55:11;;;;;;;37.20;7.50;;;20.80;59.60;;;;;;5108646;28;20241;-94
2023/05/09 03:57:39;;;;;;;35.53;7.03;;;20.80;59.60;;;;;;5108191;28;20209;-94
2023/05/09 04:00:09;;;;;;;30.87;7.53;;;20.80;59.60;;;;;;5106001;28;20302;-94
2023/05/09 04:02:36;;;;;;;40.70;8.30;;;20.80;59.60;;;;;;5116419;28;20187;-92
2023/05/09 04:05:05;;;;;;;41.57;8.27;;;20.80;59.60;;;;;;5131252;28;20197;-93
2023/05/09 04:07:32;;;;;;;35.30;7.80;;;20.80;59.60;;;;;;5130866;28;20220;-94
2023/05/09 04:09:59;;;;;;;38.27;7.93;;;20.80;60.30;;;;;;5111055;28;20577;-93
2023/05/09 04:12:27;;;;;;;59.20;9.17;;;20.80;59.70;;;;;;5107992;28;20226;-93
2023/05/09 04:15:00;;;;;;;27.20;6.67;;;20.80;59.60;;;;;;5107699;28;20661;-92
2023/05/09 04:17:27;;;;;;;34.67;7.33;;;20.80;59.70;;;;;;5109822;28;20229;-92
2023/05/09 04:19:54;;;;;;;47.90;8.47;;;20.70;59.60;;;;;;5106131;28;20223;-93
2023/05/09 04:22:22;;;;;;;37.80;8.10;;;20.70;59.60;;;;;;5107384;28;20250;-93
2023/05/09 04:24:50;;;;;;;40.67;8.23;;;20.80;59.70;;;;;;5104912;28;20634;-92
2023/05/09 04:27:17;;;;;;;45.27;8.53;;;20.70;59.60;;;;;;5106340;28;20194;-92
2023/05/09 04:29:44;;;;;;;40.33;8.27;;;20.70;59.60;;;;;;5108258;28;20257;-93
2023/05/09 04:32:11;;;;;;;41.37;8.27;;;20.70;59.60;;;;;;5108122;28;20553;-94
2023/05/09 04:34:38;;;;;;;38.50;7.70;;;20.80;59.70;;;;;;5107589;28;20283;-92
2023/05/09 04:37:08;;;;;;;47.00;8.27;;;20.80;59.70;;;;;;5096636;28;20204;-92
2023/05/09 04:39:36;;;;;;;47.03;8.43;;;20.70;59.60;;;;;;5106927;28;20293;-93
2023/05/09 04:42:04;;;;;;;35.10;7.53;;;20.80;59.70;;;;;;5100801;28;20283;-92
2023/05/09 04:44:32;;;;;;;34.90;7.63;;;20.70;59.60;;;;;;5109935;28;20237;-92
2023/05/09 04:46:59;;;;;;;35.83;7.23;;;20.80;59.70;;;;;;5110644;28;20659;-91
2023/05/09 04:49:26;;;;;;;48.60;8.63;;;20.80;59.70;;;;;;5098965;28;20727;-90
2023/05/09 04:51:52;;;;;;;36.73;7.67;;;20.70;59.60;;;;;;5102374;28;20285;-89
2023/05/09 04:54:20;;;;;;;35.53;7.40;;;20.70;59.60;;;;;;5094110;28;20273;-89
2023/05/09 04:56:48;;;;;;;35.03;7.83;;;20.70;59.60;;;;;;5090903;28;20226;-89
2023/05/09 04:59:17;;;;;;;37.57;7.67;;;20.70;59.60;;;;;;5093699;28;20282;-89
2023/05/09 05:01:44;;;;;;;36.80;8.03;;;20.70;59.60;;;;;;5108845;28;20221;-89
2023/05/09 05:04:11;;;;;;;34.20;7.30;;;20.70;59.70;;;;;;5111334;28;20201;-88
2023/05/09 05:06:38;;;;;;;39.77;7.73;;;20.70;59.70;;;;;;5110785;28;20293;-89
2023/05/09 05:09:05;;;;;;;40.37;8.07;;;20.70;59.70;;;;;;5110749;28;20198;-88
2023/05/09 05:11:32;;;;;;;41.53;8.00;;;20.70;59.70;;;;;;5109761;27;20217;-88
2023/05/09 05:14:01;;;;;;;45.17;7.97;;;20.70;59.70;;;;;;5110111;28;20207;-89
2023/05/09 05:16:27;;;;;;;56.50;9.43;;;20.70;59.70;;;;;;5108733;28;20582;-89
2023/05/09 05:19:00;;;;;;;42.60;8.27;;;20.70;59.70;;;;;;5110527;27;20190;-88
2023/05/09 05:21:27;;;;;;;45.70;7.97;;;20.60;59.60;;;;;;5109953;28;20762;-89
2023/05/09 05:23:54;;;;;;;34.63;7.60;;;20.70;59.70;;;;;;5103731;28;20222;-88
2023/05/09 05:26:21;;;;;;;41.53;7.97;;;20.70;59.70;;;;;;5105162;28;20202;-88
2023/05/09 05:28:48;;;;;;;42.50;7.70;;;20.70;59.70;;;;;;5106444;28;20630;-89
2023/05/09 05:31:16;;;;;;;52.93;8.77;;;20.70;59.70;;;;;;5107707;28;20202;-88
2023/05/09 05:33:43;;;;;;;63.20;9.70;;;20.60;59.60;;;;;;5102511;28;20702;-88
2023/05/09 05:36:12;;;;;;;37.93;7.53;;;20.60;59.60;;;;;;5108825;28;20281;-90
2023/05/09 05:38:39;;;;;;;42.30;7.60;;;20.60;59.60;;;;;;5108603;28;20311;-89
2023/05/09 05:41:10;;;;;;;49.37;8.80;;;20.70;59.90;;;;;;5102758;28;20257;-89
2023/05/09 05:43:37;;;;;;;46.67;7.53;;;20.70;59.70;;;;;;5107522;28;20202;-89
2023/05/09 05:46:04;;;;;;;49.80;8.33;;;20.70;59.70;;;;;;5108436;28;20632;-89
2023/05/09 05:48:33;;;;;;;61.50;9.60;;;20.60;59.60;;;;;;5104034;28;20249;-88
2023/05/09 05:50:59;;;;;;;36.23;7.37;;;20.60;59.60;;;;;;5107979;28;20240;-88
2023/05/09 05:53:26;;;;;;;45.37;8.00;;;20.60;59.60;;;;;;5106326;28;20240;-89
2023/05/09 05:55:53;;;;;;;71.80;10.40;;;20.60;59.60;;;;;;5107769;28;20202;-89
2023/05/09 05:58:21;;;;;;;43.37;7.93;;;20.70;59.70;;;;;;5109463;28;20304;-91
2023/05/09 06:00:48;;;;;;;41.73;8.00;;;20.60;59.70;;;;;;5106798;28;20216;-88
2023/05/09 06:03:16;;;;;;;38.70;7.47;;;20.60;59.70;;;;;;5098006;28;20285;-88
2023/05/09 06:05:46;;;;;;;49.97;9.13;;;20.60;59.70;;;;;;5108606;28;20201;-89
2023/05/09 06:08:13;;;;;;;44.73;7.87;;;20.60;59.70;;;;;;5109027;28;20281;-89
2023/05/09 06:10:40;;;;;;;86.97;10.93;;;20.60;59.60;;;;;;5106028;28;20285;-88
2023/05/09 06:13:07;;;;;;;53.93;8.80;;;20.60;59.70;;;;;;5101697;28;20190;-87
2023/05/09 06:15:34;;;;;;;27.10;6.17;;;20.60;59.70;;;;;;5091580;28;20203;-87
2023/05/09 06:18:01;;;;;;;35.00;7.27;;;20.60;59.70;;;;;;5102561;28;20210;-87
2023/05/09 06:20:28;;;;;;;62.30;10.00;;;20.60;59.70;;;;;;5106346;28;20234;-87
2023/05/09 06:22:56;;;;;;;62.17;9.50;;;20.60;59.70;;;;;;5106038;28;20217;-87
2023/05/09 06:25:23;;;;;;;49.17;9.33;;;20.70;59.70;;;;;;5100938;28;20453;-91
2023/05/09 06:27:50;;;;;;;42.63;7.63;;;20.60;59.70;;;;;;5103135;28;20209;-89
2023/05/09 06:30:17;;;;;;;34.40;7.03;;;20.70;59.70;;;;;;5097132;28;20285;-90
2023/05/09 06:32:44;;;;;;;43.87;7.33;;;20.60;59.70;;;;;;5109263;28;20190;-89
2023/05/09 06:35:11;;;;;;;38.80;7.57;;;20.60;59.70;;;;;;5095685;28;20251;-90
2023/05/09 06:37:40;;;;;;;70.33;10.73;;;20.60;59.70;;;;;;5104949;28;20677;-88
2023/05/09 06:40:09;;;;;;;44.40;8.10;;;20.60;59.70;;;;;;5108510;28;20202;-88
2023/05/09 06:42:37;;;;;;;48.27;8.70;;;20.60;59.70;;;;;;5107949;28;20198;-88
2023/05/09 06:45:04;;;;;;;56.03;9.50;;;20.60;59.70;;;;;;5104594;28;20190;-89
2023/05/09 06:47:31;;;;;;;44.57;8.27;;;20.60;59.70;;;;;;5108349;28;20227;-88
2023/05/09 06:49:58;;;;;;;89.10;12.00;;;20.60;59.70;;;;;;5106036;28;20213;-89
2023/05/09 06:52:25;;;;;;;43.27;7.93;;;20.70;59.80;;;;;;5105999;28;20285;-89
2023/05/09 06:54:53;;;;;;;43.57;8.30;;;20.60;59.70;;;;;;5101925;28;20291;-89
2023/05/09 06:57:22;;;;;;;43.37;7.97;;;20.60;59.70;;;;;;5099468;28;20198;-87
2023/05/09 06:59:49;;;;;;;41.90;7.50;;;20.60;59.70;;;;;;5107766;27;20247;-88
2023/05/09 07:02:16;;;;;;;41.20;8.23;;;20.60;59.70;;;;;;5099860;28;20766;-87
2023/05/09 07:04:43;;;;;;;64.70;10.17;;;20.60;59.70;;;;;;5095059;28;20542;-89
2023/05/09 07:07:10;;;;;;;41.47;7.80;;;20.60;59.70;;;;;;5104600;28;20273;-88
2023/05/09 07:09:37;;;;;;;31.47;7.23;;;20.60;59.70;;;;;;5107008;28;20304;-88
2023/05/09 07:12:04;;;;;;;39.27;8.10;;;20.60;59.70;;;;;;5108102;28;20285;-91
2023/05/09 07:14:33;;;;;;;38.83;7.47;;;20.60;59.80;;;;;;5108050;28;20197;-89
2023/05/09 07:17:00;;;;;;;34.07;7.63;;;20.60;59.70;;;;;;5106700;28;20729;-89
2023/05/09 07:19:26;;;;;;;37.87;7.97;;;20.60;59.80;;;;;;5103695;28;20208;-92
2023/05/09 07:21:53;;;;;;;40.80;8.27;;;20.60;59.80;;;;;;5106327;28;20673;-91
2023/05/09 07:24:20;;;;;;;56.20;9.33;;;20.60;59.80;;;;;;5105527;28;20331;-91
2023/05/09 07:26:47;;;;;;;35.57;8.00;;;20.60;59.80;;;;;;5106821;28;20959;-88
2023/05/09 07:29:14;;;;;;;41.80;7.90;;;20.60;59.90;;;;;;5106951;28;20237;-93
2023/05/09 07:31:42;;;;;;;43.67;8.63;;;20.60;59.90;;;;;;5107388;28;20277;-88
2023/05/09 07:34:09;;;;;;;41.27;8.37;;;20.60;60.50;;;;;;5107431;28;20685;-88
2023/05/09 07:36:37;;;;;;;41.23;7.70;;;20.60;59.90;;;;;;5105968;28;20249;-91
2023/05/09 07:39:04;;;;;;;43.70;8.50;;;20.60;59.80;;;;;;5106652;28;20199;-87
2023/05/09 07:41:31;;;;;;;44.53;7.97;;;20.60;59.90;;;;;;5106741;28;20256;-88
2023/05/09 07:43:58;;;;;;;39.93;7.77;;;20.60;59.90;;;;;;5103854;28;20202;-88
2023/05/09 07:46:25;;;;;;;47.13;8.60;;;20.60;59.90;;;;;;5101115;28;20205;-87
2023/05/09 07:48:53;;;;;;;41.00;8.00;;;20.60;59.90;;;;;;5117746;28;20247;-88
2023/05/09 07:51:20;;;;;;;39.13;7.83;;;20.60;59.90;;;;;;5119778;28;20518;-88
2023/05/09 07:53:47;;;;;;;29.90;6.90;;;20.60;59.90;;;;;;5112948;28;20198;-89
2023/05/09 07:56:14;;;;;;;49.80;8.67;;;20.60;59.90;;;;;;5093342;28;20294;-89
2023/05/09 07:58:41;;;;;;;56.23;9.20;;;20.60;59.90;;;;;;5103949;28;20206;-88
2023/05/09 08:01:08;;;;;;;27.80;6.73;;;20.60;59.90;;;;;;5104333;28;20236;-89
2023/05/09 08:03:37;;;;;;;37.27;7.57;;;20.60;59.90;;;;;;5108633;28;20234;-89
2023/05/09 08:06:05;;;;;;;34.67;7.00;;;20.60;59.90;;;;;;5108828;28;20283;-88
2023/05/09 08:08:33;;;;;;;42.87;8.43;;;20.60;59.90;;;;;;5106427;28;20624;-89
2023/05/09 08:10:59;;;;;;;41.27;7.67;;;20.60;59.90;;;;;;5101127;28;20289;-89
2023/05/09 08:13:27;;;;;;;59.77;9.50;;;20.60;59.90;;;;;;5099970;28;20281;-89
2023/05/09 08:15:54;;;;;;;49.53;8.50;;;20.60;60.00;;;;;;5107260;28;20277;-90
2023/05/09 08:18:21;;;;;;;42.60;7.90;;;20.60;59.90;;;;;;5101020;28;20201;-91
2023/05/09 08:20:48;;;;;;;54.93;8.67;;;20.60;59.90;;;;;;5106943;28;20297;-87
2023/05/09 08:23:16;;;;;;;42.10;8.13;;;20.60;60.00;;;;;;5108033;28;20214;-88
2023/05/09 08:25:43;;;;;;;63.17;9.27;;;20.60;59.90;;;;;;5107384;28;20213;-88
2023/05/09 08:28:11;;;;;;;46.73;8.13;;;20.60;59.90;;;;;;5100785;28;20635;-88
2023/05/09 08:30:38;;;;;;;36.00;7.27;;;20.60;60.00;;;;;;5105195;28;20194;-89
2023/05/09 08:33:05;;;;;;;37.23;7.40;;;20.60;60.00;;;;;;5110221;27;20247;-89
2023/05/09 08:35:32;;;;;;;46.53;8.37;;;20.60;60.00;;;;;;5110095;28;20285;-88
2023/05/09 08:37:59;;;;;;;76.80;10.67;;;20.60;60.00;;;;;;5105922;28;20230;-88
2023/05/09 08:40:27;;;;;;;45.13;7.80;;;20.60;60.00;;;;;;5107164;28;20347;-88
2023/05/09 08:42:55;;;;;;;29.40;6.67;;;20.60;60.00;;;;;;5106851;28;20237;-90
2023/05/09 08:45:26;;;;;;;48.60;8.30;;;20.60;60.00;;;;;;5110825;28;20200;-90
2023/05/09 08:47:54;;;;;;;79.23;10.33;;;20.60;60.10;;;;;;5110012;28;20200;-89
2023/05/09 08:50:21;;;;;;;30.00;6.43;;;20.60;60.10;;;;;;5111291;28;20209;-88
2023/05/09 08:52:48;;;;;;;33.97;6.53;;;20.60;60.10;;;;;;5092491;28;20218;-88
2023/05/09 08:55:16;;;;;;;47.43;7.73;;;20.60;60.10;;;;;;5104856;28;20281;-89
2023/05/09 08:57:44;;;;;;;41.33;7.40;;;20.60;60.10;;;;;;5108346;28;20265;-90
2023/05/09 09:00:12;;;;;;;42.20;7.63;;;20.60;60.10;;;;;;5109810;28;20273;-89
2023/05/09 09:02:41;;;;;;;48.77;8.10;;;20.60;60.10;;;;;;5109826;28;20320;-91
2023/05/09 09:05:12;;;;;;;43.40;7.40;;;20.60;60.10;;;;;;5111512;28;20206;-93
2023/05/09 09:07:40;;;;;;;56.83;8.33;;;20.70;60.30;;;;;;5107460;28;20207;-92
2023/05/09 09:10:09;;;;;;;41.00;7.53;;;20.60;60.10;;;;;;5110224;28;20198;-89
2023/05/09 09:12:40;;;;;;;73.97;9.73;;;20.60;60.20;;;;;;5108760;28;20543;-90
2023/05/09 09:15:16;;;;;;;41.00;7.00;;;20.60;60.10;;;;;;5110687;28;20205;-90
2023/05/09 09:17:48;;;;;;;42.20;7.30;;;20.60;60.20;;;;;;5110070;28;20600;-89
2023/05/09 09:20:18;;;;;;;46.17;7.23;;;20.60;60.20;;;;;;5107487;28;20299;-88
2023/05/09 09:22:48;;;;;;;60.63;8.13;;;20.60;60.10;;;;;;5109834;28;20225;-90
2023/05/09 09:25:15;;;;;;;38.33;7.00;;;20.60;60.20;;;;;;5110157;28;20278;-88
2023/05/09 09:27:42;;;;;;;40.37;6.67;;;20.60;60.20;;;;;;5110149;28;20227;-89
2023/05/09 09:30:12;;;;;;;35.77;6.60;;;20.60;60.20;;;;;;5107527;28;20293;-90
2023/05/09 09:32:40;;;;;;;37.00;6.40;;;20.60;60.20;;;;;;5110976;28;20293;-90
2023/05/09 09:35:09;;;;;;;34.30;6.40;;;20.70;60.30;;;;;;5098169;28;20194;-89
2023/05/09 09:37:38;;;;;;;42.30;6.83;;;20.60;60.20;;;;;;5108852;28;20289;-89
2023/05/09 09:40:08;;;;;;;36.50;7.07;;;20.60;60.20;;;;;;5107135;28;20201;-90
2023/05/09 09:42:45;;;;;;;35.97;5.90;;;20.60;60.20;;;;;;5109562;28;20275;-89
2023/05/09 09:45:17;;;;;;;83.60;10.63;;;20.60;61.00;;;;;;5108391;28;20233;-90
2023/05/09 09:47:46;;;;;;;39.10;6.63;;;20.70;60.30;;;;;;5108761;28;20205;-89
2023/05/09 09:50:17;;;;;;;34.73;6.70;;;20.70;60.30;;;;;;5106340;28;20252;-88
2023/05/09 09:52:49;;;;;;;31.77;6.37;;;20.70;60.30;;;;;;5109426;28;20737;-89
2023/05/09 09:55:16;;;;;;;32.00;6.17;;;20.60;60.20;;;;;;5103382;28;20285;-90
2023/05/09 09:57:44;;;;;;;38.30;6.43;;;20.60;60.30;;;;;;5110463;28;20285;-88
2023/05/09 10:00:14;;;;;;;20.33;5.33;;;20.60;60.30;;;;;;5110901;28;20198;-88
2023/05/09 10:02:49;;;;;;;20.80;5.00;;;20.60;60.30;;;;;;5106469;28;20697;-93
2023/05/09 10:05:21;;;;;;;22.20;5.47;;;20.60;60.30;;;;;;5107880;28;20211;-90
2023/05/09 10:07:52;;;;;;;26.40;5.70;;;20.60;60.30;;;;;;5110628;27;20193;-88
2023/05/09 10:10:20;;;;;;;35.90;6.63;;;20.60;60.30;;;;;;5106773;28;20194;-91
2023/05/09 10:12:48;;;;;;;30.43;5.87;;;20.70;60.40;;;;;;5102299;28;20202;-90
2023/05/09 10:15:20;;;;;;;40.27;6.80;;;20.70;60.40;;;;;;5092036;28;20212;-89
2023/05/09 10:17:50;;;;;;;27.60;5.53;;;20.60;60.30;;;;;;5090330;28;20264;-91
2023/05/09 10:20:21;;;;;;;24.63;5.13;;;20.70;60.40;;;;;;5099853;28;20307;-90
2023/05/09 10:22:49;;;;;;;33.30;6.00;;;20.60;60.30;;;;;;5109527;28;20769;-88
2023/05/09 10:25:20;;;;;;;41.97;6.43;;;20.60;60.30;;;;;;5109617;27;20212;-91
2023/05/09 10:27:48;;;;;;;32.80;5.83;;;20.70;60.40;;;;;;5105032;27;20570;-90
2023/05/09 10:30:20;;;;;;;58.17;7.90;;;20.70;60.40;;;;;;5094980;28;20727;-89
2023/05/09 10:32:53;;;;;;;61.27;8.03;;;20.60;60.30;;;;;;5099441;28;20203;-90
2023/05/09 10:35:26;;;;;;;37.50;5.93;;;20.60;60.30;;;;;;5089152;28;20289;-90
2023/05/09 10:37:56;;;;;;;36.93;6.57;;;20.60;60.30;;;;;;5096035;28;20308;-92
2023/05/09 10:40:23;;;;;;;38.27;6.33;;;20.60;60.30;;;;;;5100198;28;20219;-92
2023/05/09 10:42:51;;;;;;;37.90;6.20;;;20.70;60.40;;;;;;5097489;28;20305;-91
2023/05/09 10:45:20;;;;;;;29.60;5.67;;;20.70;60.40;;;;;;5108925;28;20238;-89
2023/05/09 10:47:55;;;;;;;44.57;6.93;;;20.60;60.40;;;;;;5107533;28;20649;-93
2023/05/09 10:50:22;;;;;;;34.90;6.60;;;20.60;60.40;;;;;;5109541;28;20211;-93
2023/05/09 10:53:12;;;;;;;33.10;6.03;;;20.60;60.40;;;;;;5109159;28;20292;-92
2023/05/09 10:55:49;;;;;;;29.10;5.53;;;20.70;60.60;;;;;;5109908;28;20316;-91
2023/05/09 10:58:21;;;;;;;34.97;6.00;;;20.60;60.40;;;;;;5110013;28;20206;-92
2023/05/09 11:00:50;;;;;;;71.53;9.27;;;20.60;60.40;;;;;;5102142;28;20282;-89
2023/05/09 11:03:18;;;;;;;33.60;5.83;;;20.70;60.50;;;;;;5105953;28;20210;-90
2023/05/09 11:05:46;;;;;;;29.87;5.60;;;20.70;60.60;;;;;;5109393;28;20758;-92
2023/05/09 11:08:21;;;;;;;37.50;5.87;;;20.60;60.40;;;;;;5109394;28;20201;-94
2023/05/09 11:10:48;;;;;;;30.23;5.27;;;20.60;60.50;;;;;;5109743;28;20206;-93
2023/05/09 11:13:22;;;;;;;40.00;6.47;;;20.70;60.50;;;;;;5108468;28;20202;-93
2023/05/09 11:18:54;;;;;;;32.07;5.50;;;20.60;60.50;;;;;;5145102;27;20576;-90
2023/05/09 11:21:22;;;;;;;57.50;7.43;;;20.70;60.60;;;;;;5139942;27;20614;-88
2023/05/09 11:23:50;;;;;;;30.07;5.13;;;20.70;60.50;;;;;;5146232;27;20695;-90
2023/05/09 11:26:21;;;;;;;39.17;6.30;;;20.70;60.60;;;;;;5146178;27;20199;-88
2023/05/09 11:28:55;;;;;;;31.93;5.50;;;20.70;60.50;;;;;;5137913;27;20653;-92
2023/05/09 11:31:22;;;;;;;54.30;7.43;;;20.70;60.60;;;;;;5145586;27;20185;-89
2023/05/09 11:33:57;;;;;;;33.60;5.83;;;20.70;60.50;;;;;;5147720;27;20223;-90
2023/05/09 11:36:34;;;;;;;40.83;5.83;;;20.70;60.60;;;;;;5153947;27;20224;-90
2023/05/09 11:39:03;;;;;;;35.70;6.07;;;20.70;60.60;;;;;;5114203;28;20207;-89
2023/05/09 11:41:31;;;;;;;35.83;5.57;;;20.70;60.60;;;;;;5147573;27;20233;-89
2023/05/09 11:43:59;;;;;;;40.97;6.17;;;20.70;60.60;;;;;;5153700;27;20193;-90
2023/05/09 11:46:26;;;;;;;33.50;5.47;;;20.70;60.60;;;;;;5159984;27;20216;-91
2023/05/09 11:48:55;;;;;;;40.70;6.10;;;20.70;60.60;;;;;;5145233;27;20276;-89
2023/05/09 11:51:22;;;;;;;37.67;6.03;;;20.70;60.60;;;;;;5150942;27;20228;-89
2023/05/09 11:53:52;;;;;;;23.70;5.03;;;20.70;60.50;;;;;;5143777;27;20193;-89
2023/05/09 11:56:25;;;;;;;46.43;6.70;;;20.70;60.60;;;;;;5121042;27;20194;-93
2023/05/09 11:58:52;;;;;;;31.87;5.27;;;20.70;60.50;;;;;;5122046;27;20227;-93
2023/05/09 12:01:20;;;;;;;43.27;6.30;;;20.70;60.60;;;;;;5148189;27;20231;-89
2023/05/09 12:03:48;;;;;;;30.67;5.17;;;20.70;60.50;;;;;;5144711;27;20247;-92
2023/05/09 12:06:17;;;;;;;29.73;5.17;;;20.70;60.50;;;;;;5128511;27;20658;-90
2023/05/09 12:08:45;;;;;;;33.00;5.47;;;20.70;61.40;;;;;;5134679;27;20215;-93
2023/05/09 12:11:13;;;;;;;39.23;6.13;;;20.80;60.60;;;;;;5132127;27;20202;-93
2023/05/09 12:13:47;;;;;;;34.23;6.23;;;20.70;60.50;;;;;;5134475;27;20273;-90
2023/05/09 12:16:15;;;;;;;43.60;6.83;;;20.70;60.60;;;;;;5146408;27;20232;-90
2023/05/09 12:18:46;;;;;;;31.53;5.47;;;20.80;60.60;;;;;;5146359;27;20704;-91
2023/05/09 12:21:13;;;;;;;25.70;5.03;;;20.70;60.60;;;;;;5142234;27;20193;-90
2023/05/09 12:23:42;;;;;;;37.10;6.13;;;20.80;60.70;;;;;;5130785;27;20222;-90
2023/05/09 12:26:09;;;;;;;38.07;6.13;;;20.80;60.70;;;;;;5117655;27;20203;-93
2023/05/09 12:28:37;;;;;;;41.57;6.53;;;20.70;60.60;;;;;;5103596;28;20263;-93
2023/05/09 12:31:05;;;;;;;29.87;5.93;;;20.80;60.70;;;;;;5123518;27;20205;-92
2023/05/09 12:33:32;;;;;;;33.23;6.27;;;20.70;60.60;;;;;;5117976;27;20627;-92
2023/05/09 12:36:05;;;;;;;36.10;6.53;;;20.70;60.60;;;;;;5091294;28;20286;-89
2023/05/09 12:38:32;;;;;;;34.77;6.03;;;20.70;60.70;;;;;;5102613;27;20344;-92
2023/05/09 12:41:05;;;;;;;41.93;6.87;;;20.70;60.60;;;;;;5131904;27;20273;-94
2023/05/09 12:43:33;;;;;;;45.23;7.47;;;20.70;60.70;;;;;;5110280;27;20206;-92
2023/05/09 12:46:01;;;;;;;38.67;6.83;;;20.70;60.70;;;;;;5111948;28;20208;-93
2023/05/09 12:48:29;;;;;;;33.77;6.30;;;20.80;60.70;;;;;;5111491;28;20281;-90